BIKF Airport Information

Runway Information
Runway 02 Length 10019 ft width 197 ft
Elevation 137 ft Threshold 19 ft Heading 360
Runway 20 Length 10019 ft Width 197 ft
Elevation 163 ft Threshold 19 ft Heading 180
Runway 11 Length 10056 ft width 197 ft
Elevation 111 ft Threshold 43 ft Heading 90
Runway 29 Length 10056 ft Width 197 ft
Elevation 171 ft Threshold 43 ft Heading 270
Airport Frequencies
Type A/G Name AIR GND Frequency 131.9 MHZ
Type APP Name APP Frequency 119.3 MHZ
Type ATIS Name ATIS Frequency 128.3 MHZ
Type DEP Name DEP Frequency 119.3 MHZ
Type GND Name GND Frequency 121.9 MHZ
Type OPS Name BASE OPS Frequency 129 MHZ
Type PMSV Name PMSV METR Frequency 125 MHZ
Type TWR Name TWR Frequency 118.3 MHZ
Airport Navaids
Type VORTAC Name Keflavik Frequency 112000 KHZ
Type NDB Name Keflavik Frequency 392 KHZ
Type NDB Name Oscar Kilo Frequency 364 KHZ
Airport Weather Information & NOTAM
ADDS - METARS form results

(1028 UTC 08 May 2021)
Data provider http://aviationweather.gov/metar/data/
 
METAR text: BIKF 081000Z 03010KT 350V060 9999 FEW032 03/M05 Q1016
Conditions at: BIKF (KEFLAVIK (CIV/MI, IS) observed 1000 UTC 08 May 2021
Temperature: 3.0°C (37°F)
Dewpoint: -5.0°C (23°F) [RH = 56%]
Pressure (altimeter): 30.00 inches Hg (1016.0 mb)
Winds: from the NNE (30 degrees) at 12 MPH (10 knots; 5.1 m/s)
Visibility: 6 or more miles (10+ km)
Ceiling: at least 12,000 feet AGL
Clouds: few clouds at 3200 feet AGL
Weather: no significant weather observed at this time

METAR text: BIKF 080930Z 04010KT 9999 FEW032 02/M04 Q1016
Conditions at: BIKF (KEFLAVIK (CIV/MI, IS) observed 0930 UTC 08 May 2021
Temperature: 2.0°C (36°F)
Dewpoint: -4.0°C (25°F) [RH = 64%]
Pressure (altimeter): 30.00 inches Hg (1016.0 mb)
Winds: from the NE (40 degrees) at 12 MPH (10 knots; 5.1 m/s)
Visibility: 6 or more miles (10+ km)
Ceiling: at least 12,000 feet AGL
Clouds: few clouds at 3200 feet AGL
Weather: no significant weather observed at this time

Forecast for: BIKF (KEFLAVIK (CIV/MI, IS)
Text: TAF BIKF 080733Z 0809/0909 09008KT 9999 FEW028 SCT036 TX06/0815Z TNM00/0904Z
Forecast period: 0900 UTC 08 May 2021 to 0900 UTC 09 May 2021
Forecast type: FROM: standard forecast or significant change
Winds: from the E (90 degrees) at 9 MPH (8 knots; 4.1 m/s)
Visibility: 6 or more miles (10+ km)
Ceiling: at least 12,000 feet AGL
Clouds: few clouds at 2800 feet AGL
scattered clouds at 3600 feet AGL
Weather: no significant weather forecast for this period
Text: TEMPO 0817/0822 04018KT
Forecast period: 1700 to 2200 UTC 08 May 2021
Forecast type: TEMPORARY: The following changes expected for less than half the time period
Winds: from the NE (40 degrees) at 21 MPH (18 knots; 9.3 m/s)
Visibility: missing
Ceiling: unknown
Clouds: missing
Weather: no significant weather forecast for this period